createdAt,value
2022-09-26T00:00:36.073Z,80.70
2022-09-26T00:03:06.293Z,81.90
2022-09-26T00:05:37.244Z,81.50
2022-09-26T00:08:09.669Z,81.20
2022-09-26T00:10:39.825Z,80.50
2022-09-26T00:13:10.376Z,80.30
2022-09-26T00:15:40.548Z,77.60
2022-09-26T00:18:10.940Z,78.40
2022-09-26T00:20:41.520Z,76.50
2022-09-26T00:23:11.632Z,77.30
2022-09-26T00:25:51.955Z,78.00
2022-09-26T00:28:23.145Z,76.60
2022-09-26T00:30:55.315Z,77.90
2022-09-26T00:33:26.192Z,79.80
2022-09-26T00:35:58.106Z,78.70
2022-09-26T00:38:31.164Z,76.00
2022-09-26T00:41:02.101Z,74.90
2022-09-26T00:43:42.100Z,76.30
2022-09-26T00:46:42.866Z,75.80
2022-09-26T00:49:39.052Z,75.30
2022-09-26T00:52:18.427Z,73.30
2022-09-26T00:54:54.163Z,73.50
2022-09-26T00:57:32.429Z,71.90
2022-09-26T01:00:07.559Z,72.00
2022-09-26T01:02:38.210Z,71.10
2022-09-26T01:05:09.430Z,70.00
2022-09-26T01:07:40.275Z,70.80
2022-09-26T01:10:11.907Z,71.30
2022-09-26T01:12:42.328Z,69.70
2022-09-26T01:15:13.591Z,69.80
2022-09-26T01:17:46.892Z,69.70
2022-09-26T01:20:32.348Z,69.90
2022-09-26T01:23:18.008Z,69.20
2022-09-26T01:26:06.279Z,68.70
2022-09-26T01:28:54.840Z,71.20
2022-09-26T01:32:14.688Z,68.90
2022-09-26T01:35:29.950Z,68.00
2022-09-26T01:38:27.369Z,67.70
2022-09-26T01:41:18.616Z,68.80
2022-09-26T01:43:48.717Z,69.10
2022-09-26T01:46:39.255Z,69.20
2022-09-26T01:49:43.300Z,68.80
2022-09-26T01:52:27.463Z,68.50
2022-09-26T01:55:20.022Z,67.60
2022-09-26T01:58:17.364Z,67.80
2022-09-26T02:00:51.701Z,66.90
2022-09-26T02:03:25.930Z,66.30
2022-09-26T02:06:05.410Z,65.90
2022-09-26T02:08:44.045Z,65.60
2022-09-26T02:11:21.418Z,64.40
2022-09-26T02:14:00.319Z,64.30
2022-09-26T02:16:56.600Z,64.80
2022-09-26T02:19:41.610Z,64.30
2022-09-26T02:22:12.061Z,64.20
2022-09-26T02:24:42.314Z,65.80
2022-09-26T02:27:12.534Z,64.50
2022-09-26T02:29:43.126Z,62.70
2022-09-26T02:32:18.698Z,62.90
2022-09-26T02:34:50.745Z,62.60
2022-09-26T02:37:23.222Z,64.00
2022-09-26T02:39:54.961Z,64.00
2022-09-26T02:42:51.037Z,64.40
2022-09-26T02:45:35.149Z,63.80
2022-09-26T02:48:28.031Z,63.60
2022-09-26T02:51:13.809Z,61.80
2022-09-26T02:54:13.944Z,63.50
2022-09-26T02:57:10.745Z,61.50
2022-09-26T02:59:51.850Z,64.80
2022-09-26T03:02:37.902Z,63.90
2022-09-26T03:05:17.497Z,63.30
2022-09-26T03:08:03.274Z,64.20
2022-09-26T03:10:34.585Z,63.50
2022-09-26T03:13:14.471Z,62.10
2022-09-26T03:15:49.168Z,64.30
2022-09-26T03:18:25.870Z,62.30
2022-09-26T03:20:56.965Z,64.10
2022-09-26T03:23:28.641Z,63.50
2022-09-26T03:26:27.805Z,63.60
2022-09-26T03:28:58.481Z,63.30
2022-09-26T03:31:28.805Z,61.20
2022-09-26T03:33:58.988Z,61.60
2022-09-26T03:36:30.260Z,61.90
2022-09-26T03:39:00.429Z,61.80
2022-09-26T03:41:30.684Z,61.70
2022-09-26T03:44:01.238Z,61.40
2022-09-26T03:46:32.387Z,61.20
2022-09-26T03:49:04.237Z,61.50
2022-09-26T03:51:35.220Z,60.70
2022-09-26T03:54:06.499Z,63.00
2022-09-26T03:56:36.970Z,64.00
2022-09-26T03:59:07.706Z,62.10
2022-09-26T04:01:37.956Z,61.90
2022-09-26T04:04:08.452Z,63.00
2022-09-26T04:06:39.890Z,61.10
2022-09-26T04:09:16.821Z,61.00
2022-09-26T04:11:47.991Z,62.00
2022-09-26T04:14:21.900Z,61.90
2022-09-26T04:16:55.027Z,62.30
2022-09-26T04:19:25.535Z,62.50
2022-09-26T04:21:55.747Z,63.40
2022-09-26T04:24:26.078Z,63.50
2022-09-26T04:26:56.444Z,62.50
2022-09-26T04:29:27.943Z,62.60
2022-09-26T04:31:58.221Z,62.60
2022-09-26T04:34:28.423Z,62.20
2022-09-26T04:37:00.999Z,63.70
2022-09-26T04:39:31.210Z,62.80
2022-09-26T04:42:02.410Z,61.60
2022-09-26T04:44:32.561Z,61.20
2022-09-26T04:47:02.696Z,61.60
2022-09-26T04:49:32.962Z,61.10
2022-09-26T04:52:03.221Z,60.50
2022-09-26T04:54:33.569Z,61.20
2022-09-26T04:57:05.072Z,61.70
2022-09-26T04:59:36.450Z,60.10
2022-09-26T05:02:10.002Z,58.30
2022-09-26T05:04:40.182Z,59.70
2022-09-26T05:07:10.335Z,59.80
2022-09-26T05:09:40.735Z,58.70
2022-09-26T05:12:10.935Z,59.00
2022-09-26T05:14:42.798Z,58.80
2022-09-26T05:17:13.389Z,58.80
2022-09-26T05:19:45.239Z,57.60
2022-09-26T05:22:15.675Z,58.50
2022-09-26T05:25:04.353Z,58.70
2022-09-26T05:27:35.013Z,57.90
2022-09-26T05:30:05.361Z,57.50
2022-09-26T05:32:35.898Z,57.20
2022-09-26T05:35:07.263Z,56.70
2022-09-26T05:37:37.467Z,56.70
2022-09-26T05:40:26.539Z,56.80
2022-09-26T05:43:06.706Z,58.40
2022-09-26T05:45:37.588Z,58.80
2022-09-26T05:48:08.330Z,59.80
2022-09-26T05:50:41.642Z,62.30
2022-09-26T05:53:13.923Z,61.80
2022-09-26T05:55:44.802Z,63.40
2022-09-26T05:58:17.650Z,64.40
2022-09-26T06:00:49.700Z,63.20
2022-09-26T06:03:20.171Z,63.20
2022-09-26T06:05:50.814Z,64.10
2022-09-26T06:08:21.086Z,63.80
2022-09-26T06:10:51.252Z,64.70
2022-09-26T06:13:23.008Z,65.00
2022-09-26T06:15:54.273Z,65.30
2022-09-26T06:18:24.525Z,65.70
2022-09-26T06:20:56.127Z,66.00
2022-09-26T06:23:26.736Z,66.10
2022-09-26T06:25:57.498Z,66.50
2022-09-26T06:28:28.826Z,65.80
2022-09-26T06:30:59.557Z,66.00
2022-09-26T06:33:33.294Z,65.80
2022-09-26T06:36:06.797Z,66.20
2022-09-26T06:38:37.852Z,66.80
2022-09-26T06:41:09.187Z,66.50
2022-09-26T06:43:39.751Z,66.50
2022-09-26T06:46:11.213Z,65.10
2022-09-26T06:48:41.861Z,65.60
2022-09-26T06:51:16.025Z,64.10
2022-09-26T06:53:47.532Z,64.00
2022-09-26T06:56:17.864Z,63.60
2022-09-26T06:58:48.757Z,63.70
2022-09-26T07:01:20.412Z,63.70
2022-09-26T07:03:50.810Z,63.00
2022-09-26T07:06:21.815Z,62.10
2022-09-26T07:09:03.831Z,62.80
2022-09-26T07:11:56.155Z,62.10
2022-09-26T07:14:25.716Z,61.20
2022-09-26T07:16:55.955Z,60.60
2022-09-26T07:19:26.190Z,61.00
2022-09-26T07:21:56.839Z,61.10
2022-09-26T07:24:28.905Z,59.60
2022-09-26T07:26:59.867Z,60.30
2022-09-26T07:29:30.582Z,61.30
2022-09-26T07:32:02.140Z,61.00
2022-09-26T07:34:33.677Z,62.40
2022-09-26T07:37:04.416Z,62.80
2022-09-26T07:39:35.068Z,61.80
2022-09-26T07:42:05.751Z,62.00
2022-09-26T07:47:44.077Z,62.20
2022-09-26T07:50:17.404Z,63.10
2022-09-26T07:52:49.581Z,62.80
2022-09-26T07:55:22.566Z,63.10
2022-09-26T07:57:53.586Z,64.50
2022-09-26T08:00:24.941Z,65.20
2022-09-26T08:02:55.358Z,64.40
2022-09-26T08:05:27.189Z,64.20
2022-09-26T08:07:59.462Z,64.50
2022-09-26T08:10:29.674Z,64.80
2022-09-26T08:13:03.301Z,64.70
2022-09-26T08:15:33.607Z,64.60
2022-09-26T08:18:04.632Z,64.80
2022-09-26T08:20:35.966Z,65.30
2022-09-26T08:23:06.544Z,65.40
2022-09-26T08:25:37.830Z,65.40
2022-09-26T08:28:12.152Z,65.50
2022-09-26T08:30:43.380Z,65.70
2022-09-26T08:33:14.461Z,66.40
2022-09-26T08:35:44.733Z,66.80
2022-09-26T08:38:16.276Z,67.60
2022-09-26T08:40:54.969Z,67.00
2022-09-26T08:43:31.640Z,67.40
2022-09-26T08:46:36.210Z,67.80
2022-09-26T08:49:25.669Z,68.10
2022-09-26T08:51:59.130Z,68.60
2022-09-26T08:54:46.127Z,69.80
2022-09-26T08:57:36.715Z,70.80
2022-09-26T09:00:29.030Z,71.40
2022-09-26T09:03:23.620Z,70.50
2022-09-26T09:06:14.908Z,70.40
2022-09-26T09:09:03.639Z,71.30
2022-09-26T09:11:52.344Z,71.20
2022-09-26T09:14:44.061Z,70.60
2022-09-26T09:17:32.463Z,70.80
2022-09-26T09:20:13.541Z,70.40
2022-09-26T09:23:17.652Z,70.30
2022-09-26T09:25:50.779Z,70.20
2022-09-26T09:28:46.047Z,70.70
2022-09-26T09:31:18.773Z,73.20
2022-09-26T09:34:00.359Z,73.30
2022-09-26T09:36:39.808Z,73.30
2022-09-26T09:39:13.578Z,73.30
2022-09-26T09:41:57.034Z,75.40
2022-09-26T09:44:51.882Z,74.50
2022-09-26T09:47:22.969Z,75.90
2022-09-26T09:49:55.071Z,75.60
2022-09-26T09:52:28.964Z,75.10
2022-09-26T09:55:07.018Z,74.60
2022-09-26T09:57:59.763Z,75.00
2022-09-26T10:00:30.609Z,76.00
2022-09-26T10:03:06.904Z,76.40
2022-09-26T10:05:50.309Z,76.40
2022-09-26T10:08:38.360Z,76.20
2022-09-26T10:11:43.747Z,76.10
2022-09-26T10:14:30.383Z,75.90
2022-09-26T10:17:12.859Z,75.80
2022-09-26T10:19:46.665Z,75.80
2022-09-26T10:22:32.127Z,76.80
2022-09-26T10:25:19.278Z,77.30
2022-09-26T10:27:56.949Z,77.30
2022-09-26T10:30:32.044Z,78.60
2022-09-26T10:33:05.840Z,80.40
2022-09-26T10:35:47.617Z,80.70
2022-09-26T10:38:35.731Z,79.30
2022-09-26T10:41:06.027Z,80.10
2022-09-26T10:43:40.623Z,80.20
2022-09-26T10:46:17.395Z,80.40
2022-09-26T10:48:51.971Z,79.90
2022-09-26T10:51:46.577Z,80.50
2022-09-26T10:54:25.183Z,82.10
2022-09-26T10:57:00.842Z,82.40
2022-09-26T10:59:37.822Z,81.10
2022-09-26T11:02:07.895Z,82.50
2022-09-26T11:05:05.465Z,82.50
2022-09-26T11:07:41.230Z,82.50
2022-09-26T11:10:18.786Z,82.70
2022-09-26T11:13:17.751Z,83.10
2022-09-26T11:16:05.238Z,83.00
2022-09-26T11:18:38.823Z,83.40
2022-09-26T11:21:36.913Z,84.10
2022-09-26T11:24:13.279Z,85.50
2022-09-26T11:27:20.700Z,84.60
2022-09-26T11:30:04.239Z,84.70
2022-09-26T11:32:42.834Z,83.80
2022-09-26T11:35:19.413Z,84.10
2022-09-26T11:37:55.604Z,82.70
2022-09-26T11:40:41.006Z,82.90
2022-09-26T11:43:48.578Z,84.10
2022-09-26T11:46:47.931Z,85.20
2022-09-26T11:49:41.188Z,85.00
2022-09-26T11:52:31.435Z,84.60
2022-09-26T11:55:04.524Z,84.70
2022-09-26T11:57:50.933Z,84.00
2022-09-26T12:00:36.372Z,82.60
2022-09-26T12:03:33.033Z,84.50
2022-09-26T12:06:15.509Z,83.80
2022-09-26T12:09:06.814Z,83.70
2022-09-26T12:11:59.723Z,82.80
2022-09-26T12:14:45.266Z,83.30
2022-09-26T12:17:46.217Z,83.60
2022-09-26T12:20:34.271Z,83.30
2022-09-26T12:23:16.404Z,82.90
2022-09-26T12:26:04.734Z,82.70
2022-09-26T12:28:55.887Z,82.60
2022-09-26T12:31:59.216Z,82.70
2022-09-26T12:34:44.409Z,82.80
2022-09-26T12:37:40.894Z,82.50
2022-09-26T12:40:30.841Z,85.30
2022-09-26T12:43:34.116Z,82.30
2022-09-26T12:46:20.396Z,82.80
2022-09-26T12:49:25.205Z,83.90
2022-09-26T12:52:00.809Z,85.70
2022-09-26T12:54:42.927Z,83.90
2022-09-26T12:57:34.593Z,84.30
2022-09-26T13:00:24.240Z,85.20
2022-09-26T13:03:28.780Z,86.10
2022-09-26T13:06:34.211Z,86.40
2022-09-26T13:09:18.196Z,85.70
2022-09-26T13:11:52.385Z,86.20
2022-09-26T13:15:19.074Z,87.00
2022-09-26T13:18:19.217Z,86.80
2022-09-26T13:20:57.070Z,86.40
2022-09-26T13:23:41.229Z,86.10
2022-09-26T13:26:24.846Z,86.20
2022-09-26T13:29:16.682Z,86.90
2022-09-26T13:32:28.229Z,88.60
2022-09-26T13:35:11.120Z,89.80
2022-09-26T13:38:00.800Z,90.00
2022-09-26T13:40:53.380Z,90.10
2022-09-26T13:43:46.169Z,90.60
2022-09-26T13:46:28.584Z,90.50
2022-09-26T13:49:20.035Z,91.10
2022-09-26T13:52:04.546Z,91.40
2022-09-26T13:54:59.070Z,91.60
2022-09-26T13:58:04.758Z,92.00
2022-09-26T14:00:42.220Z,92.20
2022-09-26T14:03:20.182Z,92.50
2022-09-26T14:05:53.829Z,92.60
2022-09-26T14:08:50.068Z,92.90
2022-09-26T14:11:44.655Z,93.00
2022-09-26T14:14:20.977Z,93.30
2022-09-26T14:16:54.230Z,93.20
2022-09-26T14:19:44.605Z,93.20
2022-09-26T14:22:22.398Z,93.40
2022-09-26T14:24:56.595Z,94.00
2022-09-26T14:27:43.267Z,94.30
2022-09-26T14:30:32.428Z,94.70
2022-09-26T14:33:10.495Z,94.70
2022-09-26T14:35:41.311Z,94.60
2022-09-26T14:38:28.910Z,94.50
2022-09-26T14:41:00.247Z,94.60
2022-09-26T14:43:34.337Z,95.10
2022-09-26T14:46:17.124Z,95.30
2022-09-26T14:48:48.352Z,95.50
2022-09-26T14:51:20.258Z,95.90
2022-09-26T14:53:54.719Z,96.00
2022-09-26T14:56:38.726Z,96.20
2022-09-26T14:59:36.649Z,96.30
2022-09-26T15:02:29.122Z,96.40
2022-09-26T15:05:09.404Z,96.60
2022-09-26T15:07:51.890Z,96.90
2022-09-26T15:10:26.312Z,97.10
2022-09-26T15:13:06.829Z,97.10
2022-09-26T15:15:55.746Z,97.00
2022-09-26T15:18:38.062Z,97.10
2022-09-26T15:21:29.423Z,97.20
2022-09-26T15:24:00.490Z,97.10
2022-09-26T15:26:40.183Z,96.90
2022-09-26T15:29:14.895Z,96.90
2022-09-26T15:31:49.312Z,96.70
2022-09-26T15:34:41.805Z,96.60
2022-09-26T15:37:22.689Z,96.50
2022-09-26T15:39:53.430Z,96.50
2022-09-26T15:42:43.484Z,96.50
2022-09-26T15:45:29.593Z,96.80
2022-09-26T15:48:15.919Z,96.80
2022-09-26T15:50:50.085Z,96.90
2022-09-26T15:53:41.653Z,96.90
2022-09-26T15:56:19.046Z,97.20
2022-09-26T15:58:51.453Z,97.20
2022-09-26T16:01:25.390Z,97.10
2022-09-26T16:04:02.102Z,97.10
2022-09-26T16:06:35.772Z,97.00
2022-09-26T16:09:27.326Z,96.80
2022-09-26T16:12:02.202Z,96.50
2022-09-26T16:14:48.849Z,96.90
2022-09-26T16:17:25.702Z,97.00
2022-09-26T16:20:06.599Z,97.10
2022-09-26T16:22:53.287Z,97.20
2022-09-26T16:25:49.804Z,97.20
2022-09-26T16:28:20.726Z,97.80
2022-09-26T16:31:03.006Z,97.40
2022-09-26T16:33:34.392Z,97.30
2022-09-26T16:36:17.073Z,97.40
2022-09-26T16:38:57.476Z,97.50
2022-09-26T16:41:56.779Z,97.50
2022-09-26T16:44:42.739Z,97.40
2022-09-26T16:47:34.307Z,97.30
2022-09-26T16:50:32.989Z,97.30
2022-09-26T16:53:07.965Z,97.30
2022-09-26T16:55:39.190Z,97.70
2022-09-26T16:58:09.593Z,97.60
2022-09-26T17:01:00.112Z,97.60
2022-09-26T17:03:33.331Z,97.60
2022-09-26T17:06:03.944Z,97.50
2022-09-26T17:08:35.610Z,97.60
2022-09-26T17:11:12.664Z,97.30
2022-09-26T17:13:45.547Z,97.50
2022-09-26T17:16:15.918Z,97.60
2022-09-26T17:18:46.581Z,97.60
2022-09-26T17:21:16.737Z,97.70
2022-09-26T17:23:47.210Z,97.80
2022-09-26T17:26:30.971Z,97.80
2022-09-26T17:29:03.177Z,97.70
2022-09-26T17:31:36.882Z,97.70
2022-09-26T17:34:07.576Z,97.80
2022-09-26T17:37:03.543Z,97.90
2022-09-26T17:39:48.936Z,98.00
2022-09-26T17:42:26.683Z,98.20
2022-09-26T17:45:00.939Z,98.30
2022-09-26T17:47:38.032Z,98.20
2022-09-26T17:53:32.736Z,98.20
2022-09-26T17:56:26.773Z,98.30
2022-09-26T17:58:58.600Z,98.40
2022-09-26T18:01:35.734Z,98.50
2022-09-26T18:04:09.145Z,98.30
2022-09-26T18:06:40.241Z,98.30
2022-09-26T18:09:22.389Z,98.40
2022-09-26T18:12:04.879Z,98.50
2022-09-26T18:14:40.772Z,98.50
2022-09-26T18:17:28.071Z,98.50
2022-09-26T18:19:58.245Z,98.50
2022-09-26T18:22:34.516Z,98.50
2022-09-26T18:25:10.447Z,98.60
2022-09-26T18:27:44.254Z,98.70
2022-09-26T18:30:20.286Z,98.80
2022-09-26T18:35:51.629Z,98.90
2022-09-26T18:38:23.757Z,98.80
2022-09-26T18:41:02.171Z,98.80
2022-09-26T18:43:40.471Z,98.80
2022-09-26T18:46:17.519Z,98.80
2022-09-26T18:48:49.493Z,98.80
2022-09-26T18:51:20.717Z,98.80
2022-09-26T18:53:51.301Z,98.70
2022-09-26T18:56:53.813Z,98.70
2022-09-26T18:59:28.293Z,98.60
2022-09-26T19:02:02.634Z,98.70
2022-09-26T19:04:33.731Z,98.80
2022-09-26T19:07:08.031Z,98.80
2022-09-26T19:09:39.570Z,99.20
2022-09-26T19:12:13.175Z,98.80
2022-09-26T19:14:43.430Z,98.80
2022-09-26T19:17:17.208Z,98.70
2022-09-26T19:19:47.536Z,98.70
2022-09-26T19:22:18.917Z,98.60
2022-09-26T19:25:01.983Z,98.70
2022-09-26T19:30:59.942Z,98.80
2022-09-26T19:33:30.374Z,98.70
2022-09-26T19:36:05.848Z,98.70
2022-09-26T19:38:35.945Z,98.70
2022-09-26T19:41:07.001Z,98.70
2022-09-26T19:43:42.782Z,98.70
2022-09-26T19:46:22.919Z,98.70
2022-09-26T19:48:53.722Z,98.60
2022-09-26T19:51:24.041Z,98.60
2022-09-26T19:53:54.555Z,98.60
2022-09-26T19:56:25.140Z,98.60
2022-09-26T19:58:55.918Z,98.60
2022-09-26T20:01:26.543Z,98.60
2022-09-26T20:03:59.846Z,98.60
2022-09-26T20:06:30.431Z,98.60
2022-09-26T20:09:02.024Z,98.60
2022-09-26T20:11:34.799Z,98.60
2022-09-26T20:14:26.325Z,98.60
2022-09-26T20:17:07.700Z,98.60
2022-09-26T20:19:42.344Z,98.60
2022-09-26T20:22:32.222Z,98.60
2022-09-26T20:25:09.891Z,98.50
2022-09-26T20:27:42.704Z,98.40
2022-09-26T20:30:35.020Z,98.40
2022-09-26T20:33:06.336Z,98.50
2022-09-26T20:35:40.328Z,98.50
2022-09-26T20:38:32.548Z,98.40
2022-09-26T20:41:29.437Z,98.40
2022-09-26T20:44:03.769Z,98.40
2022-09-26T20:46:41.125Z,98.40
2022-09-26T20:49:19.396Z,98.50
2022-09-26T20:51:52.197Z,98.60
2022-09-26T20:54:36.424Z,98.60
2022-09-26T20:57:13.498Z,98.70
2022-09-26T20:59:46.801Z,98.60
2022-09-26T21:02:58.951Z,98.60
2022-09-26T21:05:29.587Z,98.60
2022-09-26T21:08:01.394Z,98.70
2022-09-26T21:10:37.089Z,98.60
2022-09-26T21:13:08.470Z,98.80
2022-09-26T21:15:40.173Z,98.90
2022-09-26T21:18:34.865Z,99.00
2022-09-26T21:21:20.164Z,99.00
2022-09-26T21:23:52.423Z,98.90
2022-09-26T21:26:28.330Z,98.90
2022-09-26T21:29:00.191Z,98.90
2022-09-26T21:31:36.184Z,99.00
2022-09-26T21:34:24.623Z,98.80
2022-09-26T21:36:58.500Z,98.70
2022-09-26T21:39:31.425Z,98.60
2022-09-26T21:42:05.581Z,98.50
2022-09-26T21:44:50.939Z,98.50
2022-09-26T21:47:21.553Z,98.40
2022-09-26T21:49:52.020Z,98.60
2022-09-26T21:52:35.614Z,98.50
2022-09-26T21:55:07.975Z,98.40
2022-09-26T21:57:44.565Z,98.50
2022-09-26T22:00:15.614Z,98.40
2022-09-26T22:02:46.137Z,98.40
2022-09-26T22:05:18.777Z,98.30
2022-09-26T22:07:49.221Z,98.60
2022-09-26T22:10:19.548Z,98.50
2022-09-26T22:12:50.143Z,98.50
2022-09-26T22:15:25.916Z,98.60
2022-09-26T22:17:57.190Z,98.40
2022-09-26T22:20:28.024Z,98.10
2022-09-26T22:22:58.273Z,98.10
2022-09-26T22:25:28.508Z,98.00
2022-09-26T22:27:59.105Z,97.90
2022-09-26T22:30:29.340Z,97.80
2022-09-26T22:32:59.965Z,97.80
2022-09-26T22:35:30.608Z,97.80
2022-09-26T22:38:00.780Z,97.90
2022-09-26T22:40:31.496Z,98.10
2022-09-26T22:43:01.934Z,98.00
2022-09-26T22:45:34.702Z,97.70
2022-09-26T22:48:13.360Z,97.60
2022-09-26T22:50:55.616Z,97.60
2022-09-26T22:53:28.468Z,97.70
2022-09-26T22:56:07.156Z,97.80
2022-09-26T22:58:49.548Z,97.80
2022-09-26T23:01:24.580Z,97.90
2022-09-26T23:03:55.411Z,97.60
2022-09-26T23:06:26.841Z,97.70
2022-09-26T23:08:58.257Z,97.80
2022-09-26T23:11:29.599Z,98.00
2022-09-26T23:13:59.811Z,98.10
2022-09-26T23:16:30.176Z,97.90
2022-09-26T23:19:00.558Z,97.90
2022-09-26T23:21:31.469Z,98.00
2022-09-26T23:24:07.493Z,97.90
2022-09-26T23:26:43.104Z,97.80
2022-09-26T23:29:13.807Z,97.80
2022-09-26T23:31:44.103Z,97.80
2022-09-26T23:34:16.952Z,97.90
2022-09-26T23:36:47.220Z,98.10
2022-09-26T23:39:17.593Z,98.00
2022-09-26T23:41:47.901Z,98.10
2022-09-26T23:44:18.037Z,98.10
2022-09-26T23:46:49.684Z,97.90
2022-09-26T23:49:20.361Z,97.80
2022-09-26T23:51:50.523Z,98.10
2022-09-26T23:54:21.104Z,98.20
2022-09-26T23:56:52.478Z,98.20
2022-09-26T23:59:22.781Z,98.50
